sensor_id;sensor_type;location;lat;lon;timestamp;pressure;altitude;pressure_sealevel;temperature;humidity
61571;BME280;47463;49.884;10.010;2022-11-15T00:00:01;101630;;;6.9;82
61571;BME280;47463;49.884;10.010;2022-11-15T00:05:01;101630;;;6.8;83
61571;BME280;47463;49.884;10.010;2022-11-15T00:10:01;101620;;;6.7;83
61571;BME280;47463;49.884;10.010;2022-11-15T00:15:01;101620;;;6.6;84
61571;BME280;47463;49.884;10.010;2022-11-15T00:20:01;101620;;;6.6;84
61571;BME280;47463;49.884;10.010;2022-11-15T00:25:01;101620;;;6.7;84
61571;BME280;47463;49.884;10.010;2022-11-15T00:30:01;101620;;;6.7;84
61571;BME280;47463;49.884;10.010;2022-11-15T00:35:01;101630;;;6.8;84
61571;BME280;47463;49.884;10.010;2022-11-15T00:40:01;101620;;;6.8;84
61571;BME280;47463;49.884;10.010;2022-11-15T00:45:01;101630;;;6.9;84
61571;BME280;47463;49.884;10.010;2022-11-15T00:50:01;101620;;;6.9;84
61571;BME280;47463;49.884;10.010;2022-11-15T00:55:01;101620;;;6.9;84
61571;BME280;47463;49.884;10.010;2022-11-15T01:00:01;101620;;;7;84
61571;BME280;47463;49.884;10.010;2022-11-15T01:05:01;101620;;;7.1;84
61571;BME280;47463;49.884;10.010;2022-11-15T01:10:01;101620;;;7.1;84
61571;BME280;47463;49.884;10.010;2022-11-15T01:15:01;101610;;;7.1;85
61571;BME280;47463;49.884;10.010;2022-11-15T01:20:01;101610;;;7.1;85
61571;BME280;47463;49.884;10.010;2022-11-15T01:25:01;101600;;;7.2;85
61571;BME280;47463;49.884;10.010;2022-11-15T01:30:01;101600;;;7.3;84
61571;BME280;47463;49.884;10.010;2022-11-15T01:35:01;101600;;;7.3;84
61571;BME280;47463;49.884;10.010;2022-11-15T01:40:01;101590;;;7.2;84
61571;BME280;47463;49.884;10.010;2022-11-15T01:45:01;101590;;;7.2;84
61571;BME280;47463;49.884;10.010;2022-11-15T01:50:02;101580;;;7.2;84
61571;BME280;47463;49.884;10.010;2022-11-15T01:55:02;101570;;;7;84
61571;BME280;47463;49.884;10.010;2022-11-15T02:00:01;101580;;;7;84
61571;BME280;47463;49.884;10.010;2022-11-15T02:05:01;101560;;;7;84
61571;BME280;47463;49.884;10.010;2022-11-15T02:10:02;101560;;;7;85
61571;BME280;47463;49.884;10.010;2022-11-15T02:15:01;101550;;;7;85
61571;BME280;47463;49.884;10.010;2022-11-15T02:20:08;101550;;;7;85
61571;BME280;47463;49.884;10.010;2022-11-15T02:25:03;101550;;;7;85
61571;BME280;47463;49.884;10.010;2022-11-15T02:30:13;101550;;;7;85
61571;BME280;47463;49.884;10.010;2022-11-15T02:35:01;101540;;;7.1;84
61571;BME280;47463;49.884;10.010;2022-11-15T02:40:02;101530;;;7.1;84
61571;BME280;47463;49.884;10.010;2022-11-15T02:45:01;101530;;;7.1;84
61571;BME280;47463;49.884;10.010;2022-11-15T02:50:01;101520;;;7.1;85
61571;BME280;47463;49.884;10.010;2022-11-15T02:55:01;101510;;;7;85
61571;BME280;47463;49.884;10.010;2022-11-15T03:00:03;101510;;;7;85
61571;BME280;47463;49.884;10.010;2022-11-15T03:05:02;101520;;;6.8;85
61571;BME280;47463;49.884;10.010;2022-11-15T03:10:02;101520;;;6.8;85
61571;BME280;47463;49.884;10.010;2022-11-15T03:15:01;101520;;;6.5;85
61571;BME280;47463;49.884;10.010;2022-11-15T03:20:01;101510;;;6.4;85
61571;BME280;47463;49.884;10.010;2022-11-15T03:25:02;101520;;;6.5;85
61571;BME280;47463;49.884;10.010;2022-11-15T03:30:02;101520;;;6.6;85
61571;BME280;47463;49.884;10.010;2022-11-15T03:35:01;101510;;;6.7;84
61571;BME280;47463;49.884;10.010;2022-11-15T03:40:01;101510;;;6.8;84
61571;BME280;47463;49.884;10.010;2022-11-15T03:45:01;101510;;;6.9;84
61571;BME280;47463;49.884;10.010;2022-11-15T03:50:02;101500;;;6.9;84
61571;BME280;47463;49.884;10.010;2022-11-15T03:55:01;101500;;;7.3;83
61571;BME280;47463;49.884;10.010;2022-11-15T04:00:01;101490;;;7.4;82
61571;BME280;47463;49.884;10.010;2022-11-15T04:05:01;101490;;;7.2;82
61571;BME280;47463;49.884;10.010;2022-11-15T04:10:01;101490;;;6.9;83
61571;BME280;47463;49.884;10.010;2022-11-15T04:15:02;101490;;;6.6;84
61571;BME280;47463;49.884;10.010;2022-11-15T04:20:01;101490;;;6.6;84
61571;BME280;47463;49.884;10.010;2022-11-15T04:25:01;101490;;;6.3;85
61571;BME280;47463;49.884;10.010;2022-11-15T04:30:01;101480;;;6;85
61571;BME280;47463;49.884;10.010;2022-11-15T04:35:01;101490;;;5.8;85
61571;BME280;47463;49.884;10.010;2022-11-15T04:40:01;101480;;;5.7;85
61571;BME280;47463;49.884;10.010;2022-11-15T04:45:01;101480;;;5.6;86
61571;BME280;47463;49.884;10.010;2022-11-15T04:50:01;101470;;;5.5;86
61571;BME280;47463;49.884;10.010;2022-11-15T04:55:01;101470;;;5.4;86
61571;BME280;47463;49.884;10.010;2022-11-15T05:00:01;101480;;;5.3;86
61571;BME280;47463;49.884;10.010;2022-11-15T05:05:01;101460;;;5.3;86
61571;BME280;47463;49.884;10.010;2022-11-15T05:10:01;101470;;;5.2;87
61571;BME280;47463;49.884;10.010;2022-11-15T05:15:01;101470;;;5.3;87
61571;BME280;47463;49.884;10.010;2022-11-15T05:20:01;101460;;;5.1;87
61571;BME280;47463;49.884;10.010;2022-11-15T05:25:01;101460;;;5;87
61571;BME280;47463;49.884;10.010;2022-11-15T05:30:01;101450;;;4.9;87
61571;BME280;47463;49.884;10.010;2022-11-15T05:35:01;101450;;;4.8;87
61571;BME280;47463;49.884;10.010;2022-11-15T05:40:01;101450;;;4.8;87
61571;BME280;47463;49.884;10.010;2022-11-15T05:45:01;101450;;;4.7;87
61571;BME280;47463;49.884;10.010;2022-11-15T05:50:01;101430;;;4.7;87
61571;BME280;47463;49.884;10.010;2022-11-15T05:55:01;101440;;;4.7;88
61571;BME280;47463;49.884;10.010;2022-11-15T06:00:01;101430;;;4.6;88
61571;BME280;47463;49.884;10.010;2022-11-15T06:05:01;101430;;;4.8;88
61571;BME280;47463;49.884;10.010;2022-11-15T06:10:01;101430;;;4.8;88
61571;BME280;47463;49.884;10.010;2022-11-15T06:15:01;101430;;;4.8;88
61571;BME280;47463;49.884;10.010;2022-11-15T06:20:01;101430;;;4.8;88
61571;BME280;47463;49.884;10.010;2022-11-15T06:25:01;101420;;;5.2;87
61571;BME280;47463;49.884;10.010;2022-11-15T06:30:01;101420;;;5.2;87
61571;BME280;47463;49.884;10.010;2022-11-15T06:35:01;101420;;;5.2;87
61571;BME280;47463;49.884;10.010;2022-11-15T06:40:01;101430;;;5.3;86
61571;BME280;47463;49.884;10.010;2022-11-15T06:45:01;101430;;;5.4;86
61571;BME280;47463;49.884;10.010;2022-11-15T06:50:01;101410;;;5.7;86
61571;BME280;47463;49.884;10.010;2022-11-15T06:55:01;101420;;;5.7;85
61571;BME280;47463;49.884;10.010;2022-11-15T07:00:01;101420;;;5.8;85
61571;BME280;47463;49.884;10.010;2022-11-15T07:05:01;101440;;;5.9;85
61571;BME280;47463;49.884;10.010;2022-11-15T07:10:01;101460;;;6;84
61571;BME280;47463;49.884;10.010;2022-11-15T07:15:01;101460;;;5.9;84
61571;BME280;47463;49.884;10.010;2022-11-15T07:20:01;101470;;;6.1;84
61571;BME280;47463;49.884;10.010;2022-11-15T07:25:01;101460;;;6.1;84
61571;BME280;47463;49.884;10.010;2022-11-15T07:30:01;101450;;;6.1;84
61571;BME280;47463;49.884;10.010;2022-11-15T07:35:01;101450;;;6.2;84
61571;BME280;47463;49.884;10.010;2022-11-15T07:40:01;101450;;;6.4;85
61571;BME280;47463;49.884;10.010;2022-11-15T07:45:01;101450;;;6.4;85
61571;BME280;47463;49.884;10.010;2022-11-15T07:50:01;101450;;;7.6;84
61571;BME280;47463;49.884;10.010;2022-11-15T07:55:01;101460;;;7.9;83
61571;BME280;47463;49.884;10.010;2022-11-15T08:00:01;101460;;;8.1;82
61571;BME280;47463;49.884;10.010;2022-11-15T08:05:01;101460;;;8.3;81
61571;BME280;47463;49.884;10.010;2022-11-15T08:10:01;101460;;;8.3;80
61571;BME280;47463;49.884;10.010;2022-11-15T08:15:01;101460;;;8.3;80
61571;BME280;47463;49.884;10.010;2022-11-15T08:20:01;101460;;;8.7;80
61571;BME280;47463;49.884;10.010;2022-11-15T08:25:01;101450;;;9.1;79
61571;BME280;47463;49.884;10.010;2022-11-15T08:30:01;101450;;;9.4;78
61571;BME280;47463;49.884;10.010;2022-11-15T08:35:01;101440;;;9.2;78
61571;BME280;47463;49.884;10.010;2022-11-15T08:40:01;101430;;;9.6;77
61571;BME280;47463;49.884;10.010;2022-11-15T08:45:01;101430;;;9.6;77
61571;BME280;47463;49.884;10.010;2022-11-15T08:50:01;101430;;;9.9;77
61571;BME280;47463;49.884;10.010;2022-11-15T08:55:01;101420;;;10;76
61571;BME280;47463;49.884;10.010;2022-11-15T09:00:01;101420;;;10.4;76
61571;BME280;47463;49.884;10.010;2022-11-15T09:05:01;101410;;;10.5;75
61571;BME280;47463;49.884;10.010;2022-11-15T09:10:01;101410;;;10.5;74
61571;BME280;47463;49.884;10.010;2022-11-15T09:15:01;101400;;;11;74
61571;BME280;47463;49.884;10.010;2022-11-15T09:20:01;101400;;;11.1;73
61571;BME280;47463;49.884;10.010;2022-11-15T09:25:01;101400;;;11;72
61571;BME280;47463;49.884;10.010;2022-11-15T09:30:01;101390;;;10.9;72
61571;BME280;47463;49.884;10.010;2022-11-15T09:35:01;101390;;;10.6;73
61571;BME280;47463;49.884;10.010;2022-11-15T09:40:01;101390;;;10.3;74
61571;BME280;47463;49.884;10.010;2022-11-15T09:45:05;101380;;;10.6;75
61571;BME280;47463;49.884;10.010;2022-11-15T09:50:01;101390;;;10.4;75
61571;BME280;47463;49.884;10.010;2022-11-15T09:55:01;101380;;;10.4;75
61571;BME280;47463;49.884;10.010;2022-11-15T10:00:05;101390;;;10.5;75
61571;BME280;47463;49.884;10.010;2022-11-15T10:05:01;101390;;;10.5;75
61571;BME280;47463;49.884;10.010;2022-11-15T10:10:02;101370;;;11.1;74
61571;BME280;47463;49.884;10.010;2022-11-15T10:15:01;101350;;;11.1;74
61571;BME280;47463;49.884;10.010;2022-11-15T10:20:05;101360;;;11.8;72
61571;BME280;47463;49.884;10.010;2022-11-15T10:25:09;101350;;;11.6;72
61571;BME280;47463;49.884;10.010;2022-11-15T10:30:01;101340;;;11.6;73
61571;BME280;47463;49.884;10.010;2022-11-15T10:35:01;101340;;;11.3;73
61571;BME280;47463;49.884;10.010;2022-11-15T10:40:02;101330;;;11.2;73
61571;BME280;47463;49.884;10.010;2022-11-15T10:45:01;101320;;;11.1;73
61571;BME280;47463;49.884;10.010;2022-11-15T10:50:03;101320;;;11.1;74
61571;BME280;47463;49.884;10.010;2022-11-15T10:55:02;101320;;;11.2;74
61571;BME280;47463;49.884;10.010;2022-11-15T11:00:02;101310;;;11.4;73
61571;BME280;47463;49.884;10.010;2022-11-15T11:05:01;101310;;;11.4;74
61571;BME280;47463;49.884;10.010;2022-11-15T11:10:02;101310;;;11.4;74
61571;BME280;47463;49.884;10.010;2022-11-15T11:15:02;101290;;;11.6;74
61571;BME280;47463;49.884;10.010;2022-11-15T11:20:02;101290;;;11.6;74
61571;BME280;47463;49.884;10.010;2022-11-15T11:25:07;101280;;;11.9;74
61571;BME280;47463;49.884;10.010;2022-11-15T11:30:03;101290;;;11.6;74
61571;BME280;47463;49.884;10.010;2022-11-15T11:35:03;101280;;;11.9;74
61571;BME280;47463;49.884;10.010;2022-11-15T11:40:04;101280;;;12.1;74
61571;BME280;47463;49.884;10.010;2022-11-15T11:45:02;101280;;;12.1;74
61571;BME280;47463;49.884;10.010;2022-11-15T11:50:02;101280;;;12.1;74
61571;BME280;47463;49.884;10.010;2022-11-15T11:55:02;101270;;;12.2;74
61571;BME280;47463;49.884;10.010;2022-11-15T12:00:03;101260;;;12.2;74
61571;BME280;47463;49.884;10.010;2022-11-15T12:05:03;101260;;;12.2;74
61571;BME280;47463;49.884;10.010;2022-11-15T12:10:03;101270;;;12.3;74
61571;BME280;47463;49.884;10.010;2022-11-15T12:15:01;101260;;;12.2;74
61571;BME280;47463;49.884;10.010;2022-11-15T12:20:02;101250;;;12.2;74
61571;BME280;47463;49.884;10.010;2022-11-15T12:25:01;101240;;;12.2;74
61571;BME280;47463;49.884;10.010;2022-11-15T12:30:02;101230;;;12.2;74
61571;BME280;47463;49.884;10.010;2022-11-15T12:35:01;101220;;;12.4;74
61571;BME280;47463;49.884;10.010;2022-11-15T12:40:15;101220;;;12.3;74
61571;BME280;47463;49.884;10.010;2022-11-15T12:45:01;101200;;;12.2;74
61571;BME280;47463;49.884;10.010;2022-11-15T12:50:01;101200;;;12;74
61571;BME280;47463;49.884;10.010;2022-11-15T12:55:02;101190;;;11.9;75
61571;BME280;47463;49.884;10.010;2022-11-15T13:00:04;101170;;;11.9;76
61571;BME280;47463;49.884;10.010;2022-11-15T13:10:07;101170;;;11.9;75
61571;BME280;47463;49.884;10.010;2022-11-15T13:15:01;101170;;;12.1;75
61571;BME280;47463;49.884;10.010;2022-11-15T13:20:32;101170;;;12.1;75
61571;BME280;47463;49.884;10.010;2022-11-15T13:25:01;101160;;;12.1;75
61571;BME280;47463;49.884;10.010;2022-11-15T13:30:01;101160;;;12.1;75
61571;BME280;47463;49.884;10.010;2022-11-15T13:35:01;101160;;;12.1;75
61571;BME280;47463;49.884;10.010;2022-11-15T13:40:19;101150;;;12.1;75
61571;BME280;47463;49.884;10.010;2022-11-15T13:45:03;101130;;;12.1;75
61571;BME280;47463;49.884;10.010;2022-11-15T13:50:01;101130;;;12.2;76
61571;BME280;47463;49.884;10.010;2022-11-15T13:55:01;101120;;;12.3;76
61571;BME280;47463;49.884;10.010;2022-11-15T14:00:02;101130;;;12.4;76
61571;BME280;47463;49.884;10.010;2022-11-15T14:05:01;101120;;;12.3;75
61571;BME280;47463;49.884;10.010;2022-11-15T14:10:16;101110;;;12.4;75
61571;BME280;47463;49.884;10.010;2022-11-15T14:15:02;101110;;;12.4;75
61571;BME280;47463;49.884;10.010;2022-11-15T14:20:01;101100;;;12.4;75
61571;BME280;47463;49.884;10.010;2022-11-15T14:25:06;101090;;;12.3;75
61571;BME280;47463;49.884;10.010;2022-11-15T14:30:01;101090;;;12.3;75
61571;BME280;47463;49.884;10.010;2022-11-15T14:35:01;101090;;;12.3;75
61571;BME280;47463;49.884;10.010;2022-11-15T14:40:01;101090;;;12.4;75
61571;BME280;47463;49.884;10.010;2022-11-15T14:45:01;101070;;;12.3;76
61571;BME280;47463;49.884;10.010;2022-11-15T14:50:01;101070;;;12.3;75
61571;BME280;47463;49.884;10.010;2022-11-15T14:55:01;101070;;;12.2;75
61571;BME280;47463;49.884;10.010;2022-11-15T15:00:01;101050;;;12.2;75
61571;BME280;47463;49.884;10.010;2022-11-15T15:05:01;101030;;;12;75
61571;BME280;47463;49.884;10.010;2022-11-15T15:10:01;101030;;;11.9;75
61571;BME280;47463;49.884;10.010;2022-11-15T15:15:01;101030;;;11.8;75
61571;BME280;47463;49.884;10.010;2022-11-15T15:20:01;101030;;;11.6;77
61571;BME280;47463;49.884;10.010;2022-11-15T15:25:01;101010;;;11.4;78
61571;BME280;47463;49.884;10.010;2022-11-15T15:30:01;101000;;;11.3;79
61571;BME280;47463;49.884;10.010;2022-11-15T15:35:01;101000;;;11.2;80
61571;BME280;47463;49.884;10.010;2022-11-15T15:40:01;100990;;;11.1;80
61571;BME280;47463;49.884;10.010;2022-11-15T15:45:01;100970;;;11.1;80
61571;BME280;47463;49.884;10.010;2022-11-15T15:50:01;100970;;;11;80
61571;BME280;47463;49.884;10.010;2022-11-15T15:55:01;100960;;;10.8;80
61571;BME280;47463;49.884;10.010;2022-11-15T16:00:01;100960;;;10.7;80
61571;BME280;47463;49.884;10.010;2022-11-15T16:05:01;100960;;;10.6;80
61571;BME280;47463;49.884;10.010;2022-11-15T16:10:01;100960;;;10.6;81
61571;BME280;47463;49.884;10.010;2022-11-15T16:15:01;100940;;;10.7;80
61571;BME280;47463;49.884;10.010;2022-11-15T16:20:01;100940;;;10.7;80
61571;BME280;47463;49.884;10.010;2022-11-15T16:25:01;100930;;;10.8;80
61571;BME280;47463;49.884;10.010;2022-11-15T16:30:01;100920;;;10.8;80
61571;BME280;47463;49.884;10.010;2022-11-15T16:35:01;100920;;;10.8;80
61571;BME280;47463;49.884;10.010;2022-11-15T16:40:01;100930;;;10.8;79
61571;BME280;47463;49.884;10.010;2022-11-15T16:45:01;100920;;;10.8;79
61571;BME280;47463;49.884;10.010;2022-11-15T16:50:01;100930;;;10.7;79
61571;BME280;47463;49.884;10.010;2022-11-15T16:55:01;100910;;;10.7;79
61571;BME280;47463;49.884;10.010;2022-11-15T17:00:01;100910;;;10.7;79
61571;BME280;47463;49.884;10.010;2022-11-15T17:05:01;100910;;;10.6;79
61571;BME280;47463;49.884;10.010;2022-11-15T17:10:01;100920;;;10.5;79
61571;BME280;47463;49.884;10.010;2022-11-15T17:15:01;100910;;;10.4;79
61571;BME280;47463;49.884;10.010;2022-11-15T17:20:01;100900;;;10.3;80
61571;BME280;47463;49.884;10.010;2022-11-15T17:25:01;100900;;;10.3;80
61571;BME280;47463;49.884;10.010;2022-11-15T17:30:01;100890;;;10.2;80
61571;BME280;47463;49.884;10.010;2022-11-15T17:35:01;100880;;;10.1;80
61571;BME280;47463;49.884;10.010;2022-11-15T17:40:01;100890;;;10.1;80
61571;BME280;47463;49.884;10.010;2022-11-15T17:45:01;100880;;;10;80
61571;BME280;47463;49.884;10.010;2022-11-15T17:50:01;100870;;;10;80
61571;BME280;47463;49.884;10.010;2022-11-15T17:55:01;100860;;;10.1;80
61571;BME280;47463;49.884;10.010;2022-11-15T18:00:01;100860;;;10;80
61571;BME280;47463;49.884;10.010;2022-11-15T18:05:01;100850;;;10;80
61571;BME280;47463;49.884;10.010;2022-11-15T18:10:01;100850;;;9.9;81
61571;BME280;47463;49.884;10.010;2022-11-15T18:15:01;100840;;;9.9;81
61571;BME280;47463;49.884;10.010;2022-11-15T18:20:01;100830;;;9.9;81
61571;BME280;47463;49.884;10.010;2022-11-15T18:25:01;100830;;;10;80
61571;BME280;47463;49.884;10.010;2022-11-15T18:30:01;100830;;;10;80
61571;BME280;47463;49.884;10.010;2022-11-15T18:35:01;100830;;;10.1;79
61571;BME280;47463;49.884;10.010;2022-11-15T18:40:01;100820;;;10;80
61571;BME280;47463;49.884;10.010;2022-11-15T18:45:01;100820;;;10;79
61571;BME280;47463;49.884;10.010;2022-11-15T18:50:01;100810;;;10.3;77
61571;BME280;47463;49.884;10.010;2022-11-15T18:55:01;100810;;;10.5;76
61571;BME280;47463;49.884;10.010;2022-11-15T19:00:01;100800;;;10.6;75
61571;BME280;47463;49.884;10.010;2022-11-15T19:05:01;100810;;;10.6;75
61571;BME280;47463;49.884;10.010;2022-11-15T19:10:01;100790;;;10.6;75
61571;BME280;47463;49.884;10.010;2022-11-15T19:15:01;100780;;;10.3;76
61571;BME280;47463;49.884;10.010;2022-11-15T19:20:01;100780;;;10.3;76
61571;BME280;47463;49.884;10.010;2022-11-15T19:25:01;100780;;;10.3;76
61571;BME280;47463;49.884;10.010;2022-11-15T19:30:01;100770;;;10.4;75
61571;BME280;47463;49.884;10.010;2022-11-15T19:35:01;100770;;;10.5;74
61571;BME280;47463;49.884;10.010;2022-11-15T19:40:01;100760;;;10.5;74
61571;BME280;47463;49.884;10.010;2022-11-15T19:45:01;100760;;;10.3;75
61571;BME280;47463;49.884;10.010;2022-11-15T19:50:01;100750;;;10.3;75
61571;BME280;47463;49.884;10.010;2022-11-15T19:55:01;100750;;;10.4;74
61571;BME280;47463;49.884;10.010;2022-11-15T20:00:01;100750;;;10.5;74
61571;BME280;47463;49.884;10.010;2022-11-15T20:05:01;100750;;;10.4;74
61571;BME280;47463;49.884;10.010;2022-11-15T20:10:01;100750;;;10.2;74
61571;BME280;47463;49.884;10.010;2022-11-15T20:15:01;100740;;;10.2;75
61571;BME280;47463;49.884;10.010;2022-11-15T20:20:01;100740;;;10.1;75
61571;BME280;47463;49.884;10.010;2022-11-15T20:25:01;100740;;;10.1;75
61571;BME280;47463;49.884;10.010;2022-11-15T20:30:01;100740;;;10;75
61571;BME280;47463;49.884;10.010;2022-11-15T20:35:01;100740;;;9.9;76
61571;BME280;47463;49.884;10.010;2022-11-15T20:40:01;100740;;;9.7;76
61571;BME280;47463;49.884;10.010;2022-11-15T20:45:01;100730;;;9.7;76
61571;BME280;47463;49.884;10.010;2022-11-15T20:50:01;100720;;;9.8;76
61571;BME280;47463;49.884;10.010;2022-11-15T20:55:01;100720;;;10;75
61571;BME280;47463;49.884;10.010;2022-11-15T21:00:01;100710;;;10;75
61571;BME280;47463;49.884;10.010;2022-11-15T21:05:01;100690;;;10;75
61571;BME280;47463;49.884;10.010;2022-11-15T21:10:01;100700;;;9.9;75
61571;BME280;47463;49.884;10.010;2022-11-15T21:15:01;100690;;;9.9;75
61571;BME280;47463;49.884;10.010;2022-11-15T21:20:01;100690;;;9.9;75
61571;BME280;47463;49.884;10.010;2022-11-15T21:25:01;100690;;;9.7;76
61571;BME280;47463;49.884;10.010;2022-11-15T21:30:01;100680;;;9.7;76
61571;BME280;47463;49.884;10.010;2022-11-15T21:35:01;100670;;;9.6;76
61571;BME280;47463;49.884;10.010;2022-11-15T21:40:01;100650;;;9.6;76
61571;BME280;47463;49.884;10.010;2022-11-15T21:45:01;100650;;;9.5;77
61571;BME280;47463;49.884;10.010;2022-11-15T21:50:01;100660;;;9.5;77
61571;BME280;47463;49.884;10.010;2022-11-15T21:55:01;100650;;;9.4;77
61571;BME280;47463;49.884;10.010;2022-11-15T22:00:01;100650;;;9.3;77
61571;BME280;47463;49.884;10.010;2022-11-15T22:05:01;100650;;;9.4;77
61571;BME280;47463;49.884;10.010;2022-11-15T22:10:01;100640;;;9.5;76
61571;BME280;47463;49.884;10.010;2022-11-15T22:15:01;100630;;;9.5;77
61571;BME280;47463;49.884;10.010;2022-11-15T22:20:01;100630;;;9.5;77
61571;BME280;47463;49.884;10.010;2022-11-15T22:25:01;100630;;;9.5;77
61571;BME280;47463;49.884;10.010;2022-11-15T22:30:01;100620;;;9.5;77
61571;BME280;47463;49.884;10.010;2022-11-15T22:35:01;100620;;;9.3;78
61571;BME280;47463;49.884;10.010;2022-11-15T22:40:01;100610;;;8.9;79
61571;BME280;47463;49.884;10.010;2022-11-15T22:45:01;100600;;;8.9;79
61571;BME280;47463;49.884;10.010;2022-11-15T22:50:01;100590;;;9;79
61571;BME280;47463;49.884;10.010;2022-11-15T22:55:01;100580;;;9;79
61571;BME280;47463;49.884;10.010;2022-11-15T23:00:01;100580;;;9.1;78
61571;BME280;47463;49.884;10.010;2022-11-15T23:05:01;100580;;;9.3;78
61571;BME280;47463;49.884;10.010;2022-11-15T23:10:01;100590;;;9.4;77
61571;BME280;47463;49.884;10.010;2022-11-15T23:15:01;100590;;;9.4;77
61571;BME280;47463;49.884;10.010;2022-11-15T23:20:01;100580;;;9.3;78
61571;BME280;47463;49.884;10.010;2022-11-15T23:25:01;100580;;;9.3;78
61571;BME280;47463;49.884;10.010;2022-11-15T23:30:01;100570;;;9.2;78
61571;BME280;47463;49.884;10.010;2022-11-15T23:35:01;100560;;;9.2;78
61571;BME280;47463;49.884;10.010;2022-11-15T23:40:01;100550;;;9.2;78
61571;BME280;47463;49.884;10.010;2022-11-15T23:45:01;100550;;;9.2;78
61571;BME280;47463;49.884;10.010;2022-11-15T23:50:01;100560;;;9.1;78
61571;BME280;47463;49.884;10.010;2022-11-15T23:55:01;100560;;;9;79
